createdAt,value
2022-08-17T00:00:10.230Z,3.83
2022-08-17T00:03:15.157Z,4.65
2022-08-17T00:05:50.879Z,4.45
2022-08-17T00:08:20.559Z,4.15
2022-08-17T00:10:48.300Z,4.50
2022-08-17T00:13:24.740Z,4.43
2022-08-17T00:15:54.506Z,4.22
2022-08-17T00:19:01.719Z,4.50
2022-08-17T00:21:10.528Z,4.22
2022-08-17T00:23:37.920Z,4.57
2022-08-17T00:26:04.446Z,4.57
2022-08-17T00:28:31.108Z,4.57
2022-08-17T00:31:00.127Z,4.90
2022-08-17T00:33:31.154Z,5.57
2022-08-17T00:36:00.042Z,4.40
2022-08-17T00:38:28.728Z,4.97
2022-08-17T00:41:00.619Z,4.93
2022-08-17T00:43:40.077Z,4.88
2022-08-17T00:46:15.613Z,4.88
2022-08-17T00:48:43.487Z,4.85
2022-08-17T00:51:13.651Z,5.00
2022-08-17T00:53:47.397Z,5.32
2022-08-17T00:56:23.255Z,4.60
2022-08-17T00:58:55.174Z,4.63
2022-08-17T01:01:24.744Z,4.95
2022-08-17T01:03:55.547Z,4.95
2022-08-17T01:06:30.647Z,4.80
2022-08-17T01:09:01.996Z,5.18
2022-08-17T01:11:33.351Z,5.30
2022-08-17T01:14:03.407Z,4.72
2022-08-17T01:16:37.358Z,5.53
2022-08-17T01:19:30.370Z,5.07
2022-08-17T01:22:09.132Z,5.00
2022-08-17T01:24:39.371Z,5.30
2022-08-17T01:27:09.301Z,5.10
2022-08-17T01:29:39.835Z,5.38
2022-08-17T01:32:07.912Z,5.07
2022-08-17T01:34:43.720Z,5.20
2022-08-17T01:37:35.835Z,5.07
2022-08-17T01:40:15.043Z,5.20
2022-08-17T01:43:00.910Z,4.93
2022-08-17T01:45:36.326Z,5.50
2022-08-17T01:48:06.515Z,5.30
2022-08-17T01:50:38.365Z,5.45
2022-08-17T01:53:14.042Z,5.15
2022-08-17T01:55:47.656Z,4.90
2022-08-17T01:58:15.284Z,5.28
2022-08-17T02:00:47.835Z,5.50
2022-08-17T02:03:30.628Z,5.05
2022-08-17T02:05:58.011Z,5.68
2022-08-17T02:08:39.204Z,5.05
2022-08-17T02:11:19.409Z,5.30
2022-08-17T02:16:24.090Z,5.68
2022-08-17T02:18:50.770Z,5.65
2022-08-17T02:21:17.528Z,5.72
2022-08-17T02:23:47.856Z,5.18
2022-08-17T02:26:23.921Z,5.53
2022-08-17T02:28:53.750Z,5.35
2022-08-17T02:31:21.412Z,5.38
2022-08-17T02:34:03.984Z,5.68
2022-08-17T02:36:35.558Z,6.05
2022-08-17T02:39:08.100Z,5.88
2022-08-17T02:41:35.503Z,5.75
2022-08-17T02:44:02.961Z,5.63
2022-08-17T02:46:31.219Z,5.60
2022-08-17T02:48:58.582Z,5.28
2022-08-17T02:51:26.391Z,5.88
2022-08-17T02:53:53.202Z,5.53
2022-08-17T02:56:39.765Z,5.43
2022-08-17T02:59:06.379Z,5.82
2022-08-17T03:01:33.050Z,5.57
2022-08-17T03:03:59.942Z,5.38
2022-08-17T03:06:26.541Z,5.38
2022-08-17T03:08:53.349Z,5.20
2022-08-17T03:11:19.837Z,5.60
2022-08-17T03:13:46.452Z,5.63
2022-08-17T03:16:12.964Z,5.57
2022-08-17T03:18:39.505Z,5.85
2022-08-17T03:21:08.453Z,5.50
2022-08-17T03:23:41.018Z,6.03
2022-08-17T03:26:12.296Z,5.57
2022-08-17T03:28:42.414Z,5.63
2022-08-17T03:31:09.388Z,5.57
2022-08-17T03:33:35.920Z,5.38
2022-08-17T03:36:02.471Z,5.85
2022-08-17T03:38:29.076Z,5.57
2022-08-17T03:41:06.455Z,5.68
2022-08-17T03:43:34.640Z,5.68
2022-08-17T03:46:28.528Z,5.72
2022-08-17T03:49:20.581Z,5.82
2022-08-17T03:52:05.949Z,6.20
2022-08-17T03:54:51.298Z,5.63
2022-08-17T03:57:19.171Z,6.53
2022-08-17T03:59:46.010Z,5.80
2022-08-17T04:02:20.801Z,6.20
2022-08-17T04:04:51.019Z,6.43
2022-08-17T04:07:20.341Z,6.10
2022-08-17T04:09:46.940Z,6.18
2022-08-17T04:12:16.520Z,6.00
2022-08-17T04:14:53.107Z,6.15
2022-08-17T04:17:27.555Z,5.88
2022-08-17T04:19:55.739Z,6.07
2022-08-17T04:22:30.226Z,6.03
2022-08-17T04:25:18.494Z,6.20
2022-08-17T04:27:45.021Z,6.03
2022-08-17T04:30:13.047Z,5.82
2022-08-17T04:33:05.406Z,6.07
2022-08-17T04:35:43.866Z,5.93
2022-08-17T04:38:14.945Z,5.78
2022-08-17T04:41:01.222Z,5.30
2022-08-17T04:43:28.862Z,5.50
2022-08-17T04:45:58.218Z,5.00
2022-08-17T04:48:29.737Z,5.30
2022-08-17T04:51:06.242Z,5.20
2022-08-17T04:53:33.026Z,4.95
2022-08-17T04:55:59.486Z,5.20
2022-08-17T04:58:26.569Z,4.70
2022-08-17T05:00:53.269Z,5.03
2022-08-17T05:03:19.862Z,5.15
2022-08-17T05:05:49.735Z,5.00
2022-08-17T05:08:19.039Z,5.43
2022-08-17T05:10:47.008Z,5.43
2022-08-17T05:13:25.455Z,4.93
2022-08-17T05:16:01.441Z,5.00
2022-08-17T05:18:29.660Z,5.07
2022-08-17T05:20:57.137Z,4.85
2022-08-17T05:23:26.380Z,4.93
2022-08-17T05:25:55.414Z,5.35
2022-08-17T05:28:27.367Z,4.78
2022-08-17T05:30:57.920Z,5.20
2022-08-17T05:33:28.349Z,5.35
2022-08-17T05:35:58.220Z,5.20
2022-08-17T05:38:27.228Z,4.95
2022-08-17T05:40:54.577Z,4.30
2022-08-17T05:43:34.170Z,4.80
2022-08-17T05:46:15.945Z,4.50
2022-08-17T05:48:46.058Z,4.70
2022-08-17T05:51:28.142Z,4.65
2022-08-17T05:54:20.444Z,5.20
2022-08-17T05:57:03.394Z,4.60
2022-08-17T05:59:30.589Z,4.82
2022-08-17T06:02:15.091Z,4.90
2022-08-17T06:05:16.386Z,4.40
2022-08-17T06:07:53.929Z,4.35
2022-08-17T06:10:31.179Z,4.38
2022-08-17T06:13:03.617Z,4.30
2022-08-17T06:15:54.143Z,5.10
2022-08-17T06:18:25.680Z,4.80
2022-08-17T06:20:56.660Z,4.57
2022-08-17T06:23:47.934Z,4.05
2022-08-17T06:26:17.788Z,4.18
2022-08-17T06:28:54.199Z,4.05
2022-08-17T06:31:29.089Z,4.30
2022-08-17T06:33:58.047Z,4.35
2022-08-17T06:36:29.437Z,4.18
2022-08-17T06:39:19.180Z,3.92
2022-08-17T06:42:05.635Z,4.40
2022-08-17T06:44:51.457Z,3.80
2022-08-17T06:47:29.355Z,3.70
2022-08-17T06:50:08.643Z,3.63
2022-08-17T06:52:47.392Z,3.65
2022-08-17T06:55:21.400Z,3.65
2022-08-17T06:57:52.571Z,4.20
2022-08-17T07:00:24.482Z,3.90
2022-08-17T07:03:12.847Z,3.50
2022-08-17T07:05:44.666Z,3.15
2022-08-17T07:08:35.095Z,3.10
2022-08-17T07:11:08.787Z,3.25
2022-08-17T07:13:51.525Z,3.50
2022-08-17T07:16:28.273Z,3.33
2022-08-17T07:18:56.950Z,3.22
2022-08-17T07:21:46.026Z,2.97
2022-08-17T07:24:35.621Z,3.15
2022-08-17T07:27:06.453Z,3.13
2022-08-17T07:29:39.928Z,2.90
2022-08-17T07:32:08.988Z,2.88
2022-08-17T07:35:00.061Z,3.03
2022-08-17T07:37:26.608Z,3.10
2022-08-17T07:39:59.631Z,3.20
2022-08-17T07:42:46.575Z,3.10
2022-08-17T07:45:35.068Z,3.05
2022-08-17T07:48:20.144Z,2.90
2022-08-17T07:50:49.689Z,3.08
2022-08-17T07:53:25.397Z,2.83
2022-08-17T07:55:53.934Z,2.80
2022-08-17T07:58:23.679Z,2.85
2022-08-17T08:01:07.840Z,3.08
2022-08-17T08:03:42.707Z,3.20
2022-08-17T08:06:24.362Z,3.00
2022-08-17T08:08:54.990Z,3.22
2022-08-17T08:11:40.210Z,3.17
2022-08-17T08:14:31.092Z,3.13
2022-08-17T08:17:01.824Z,2.58
2022-08-17T08:19:30.414Z,3.13
2022-08-17T08:22:11.294Z,2.92
2022-08-17T08:24:40.901Z,2.90
2022-08-17T08:27:39.989Z,3.08
2022-08-17T08:30:12.072Z,3.20
2022-08-17T08:32:57.666Z,3.60
2022-08-17T08:35:35.002Z,2.60
2022-08-17T08:38:15.023Z,2.63
2022-08-17T08:43:14.096Z,2.72
2022-08-17T08:45:59.725Z,2.80
2022-08-17T08:49:11.887Z,2.72
2022-08-17T08:52:01.413Z,2.28
2022-08-17T08:54:46.688Z,2.67
2022-08-17T08:57:34.065Z,2.33
2022-08-17T09:00:15.946Z,2.78
2022-08-17T09:02:45.505Z,2.50
2022-08-17T09:05:14.709Z,2.20
2022-08-17T09:07:54.730Z,2.47
2022-08-17T09:11:01.159Z,2.45
2022-08-17T09:13:55.773Z,2.40
2022-08-17T09:16:37.527Z,2.25
2022-08-17T09:19:11.883Z,2.60
2022-08-17T09:21:52.567Z,2.20
2022-08-17T09:24:40.143Z,2.30
2022-08-17T09:27:13.555Z,2.10
2022-08-17T09:29:48.003Z,1.90
2022-08-17T09:32:28.650Z,1.90
2022-08-17T09:35:01.967Z,1.20
2022-08-17T09:37:42.645Z,1.73
2022-08-17T09:40:18.737Z,1.52
2022-08-17T09:43:12.091Z,1.30
2022-08-17T09:45:50.652Z,1.10
2022-08-17T09:48:29.470Z,1.05
2022-08-17T09:51:14.844Z,0.93
2022-08-17T09:53:44.549Z,0.90
2022-08-17T09:56:46.019Z,1.02
2022-08-17T09:59:38.532Z,0.93
2022-08-17T10:02:40.624Z,0.90
2022-08-17T10:05:19.320Z,0.90
2022-08-17T10:08:09.250Z,1.20
2022-08-17T10:10:56.519Z,1.25
2022-08-17T10:13:37.598Z,1.10
2022-08-17T10:16:12.048Z,1.38
2022-08-17T10:18:52.679Z,1.20
2022-08-17T10:21:38.370Z,1.00
2022-08-17T10:24:26.696Z,1.23
2022-08-17T10:26:57.662Z,1.10
2022-08-17T10:30:04.981Z,1.25
2022-08-17T10:32:57.256Z,1.10
2022-08-17T10:35:35.035Z,1.10
2022-08-17T10:38:41.301Z,1.20
2022-08-17T10:41:27.183Z,1.10
2022-08-17T10:44:38.381Z,1.10
2022-08-17T10:47:18.147Z,1.35
2022-08-17T10:49:55.966Z,1.00
2022-08-17T10:52:22.891Z,1.15
2022-08-17T10:54:51.700Z,1.10
2022-08-17T10:57:34.537Z,1.05
2022-08-17T11:00:15.754Z,1.20
2022-08-17T11:02:54.349Z,1.00
2022-08-17T11:05:28.665Z,0.90
2022-08-17T11:08:26.102Z,1.00
2022-08-17T11:11:23.275Z,0.95
2022-08-17T11:14:23.926Z,1.02
2022-08-17T11:17:17.176Z,1.17
2022-08-17T11:19:43.738Z,1.20
2022-08-17T11:22:20.170Z,1.20
2022-08-17T11:24:51.241Z,1.10
2022-08-17T11:27:28.658Z,1.10
2022-08-17T11:30:07.991Z,1.15
2022-08-17T11:32:47.330Z,1.10
2022-08-17T11:35:38.633Z,1.20
2022-08-17T11:38:16.403Z,0.98
2022-08-17T11:40:46.537Z,1.10
2022-08-17T11:43:27.294Z,1.60
2022-08-17T11:45:53.802Z,1.10
2022-08-17T11:48:56.683Z,1.40
2022-08-17T11:51:44.932Z,1.00
2022-08-17T11:54:34.161Z,1.20
2022-08-17T11:57:46.091Z,1.00
2022-08-17T12:00:47.084Z,1.10
2022-08-17T12:03:24.884Z,1.10
2022-08-17T12:06:02.530Z,1.10
2022-08-17T12:08:32.648Z,1.10
2022-08-17T12:11:04.027Z,1.08
2022-08-17T12:13:39.467Z,0.90
2022-08-17T12:16:08.241Z,1.20
2022-08-17T12:18:37.567Z,1.10
2022-08-17T12:23:47.347Z,1.15
2022-08-17T12:26:19.972Z,1.20
2022-08-17T12:28:49.162Z,1.15
2022-08-17T12:31:23.310Z,1.00
2022-08-17T12:33:51.881Z,0.95
2022-08-17T12:36:24.938Z,0.90
2022-08-17T12:38:59.502Z,1.20
2022-08-17T12:41:47.058Z,0.97
2022-08-17T12:44:19.972Z,1.10
2022-08-17T12:47:19.361Z,1.17
2022-08-17T12:49:53.663Z,1.20
2022-08-17T12:52:20.286Z,1.13
2022-08-17T12:54:59.491Z,0.90
2022-08-17T13:00:14.570Z,0.90
2022-08-17T13:02:48.397Z,0.90
2022-08-17T13:05:29.101Z,0.93
2022-08-17T13:07:58.300Z,0.90
2022-08-17T13:13:17.698Z,1.05
2022-08-17T13:15:59.657Z,1.10
2022-08-17T13:18:58.385Z,0.95
2022-08-17T13:21:28.647Z,0.90
2022-08-17T13:24:03.080Z,1.20
2022-08-17T13:26:34.556Z,1.10
2022-08-17T13:29:05.423Z,1.10
2022-08-17T13:31:52.108Z,1.17
2022-08-17T13:34:26.876Z,0.95
2022-08-17T13:37:26.408Z,1.00
2022-08-17T13:39:54.420Z,1.27
2022-08-17T13:42:30.084Z,1.00
2022-08-17T13:44:57.363Z,1.20
2022-08-17T13:47:24.798Z,0.82
2022-08-17T13:49:51.917Z,1.10
2022-08-17T13:52:33.054Z,1.00
2022-08-17T13:55:03.223Z,1.08
2022-08-17T13:57:29.824Z,1.17
2022-08-17T14:00:33.425Z,1.10
2022-08-17T14:03:02.447Z,1.13
2022-08-17T14:05:30.610Z,0.88
2022-08-17T14:08:00.732Z,1.20
2022-08-17T14:10:28.929Z,1.85
2022-08-17T14:12:56.079Z,1.10
2022-08-17T14:15:56.108Z,0.90
2022-08-17T14:18:49.858Z,1.10
2022-08-17T14:21:09.985Z,1.20
2022-08-17T14:23:54.833Z,1.48
2022-08-17T14:26:23.251Z,1.13
2022-08-17T14:28:54.380Z,1.10
2022-08-17T14:31:22.211Z,1.13
2022-08-17T14:33:54.750Z,1.10
2022-08-17T14:36:24.338Z,1.27
2022-08-17T14:41:21.955Z,1.33
2022-08-17T14:43:49.874Z,1.30
2022-08-17T14:46:16.346Z,1.25
2022-08-17T14:48:42.989Z,1.60
2022-08-17T14:51:09.480Z,1.30
2022-08-17T14:53:36.652Z,1.10
2022-08-17T14:56:03.456Z,1.30
2022-08-17T14:58:30.229Z,1.25
2022-08-17T15:00:57.630Z,1.25
2022-08-17T15:03:24.366Z,1.10
2022-08-17T15:05:50.997Z,1.17
2022-08-17T15:08:17.952Z,1.10
2022-08-17T15:10:44.801Z,1.17
2022-08-17T15:13:22.450Z,1.25
2022-08-17T15:15:49.607Z,1.40
2022-08-17T15:18:16.312Z,1.60
2022-08-17T15:20:44.374Z,1.52
2022-08-17T15:23:16.431Z,1.45
2022-08-17T15:25:43.817Z,1.48
2022-08-17T15:28:10.426Z,1.33
2022-08-17T15:30:37.002Z,1.42
2022-08-17T15:33:03.962Z,1.30
2022-08-17T15:35:33.236Z,1.30
2022-08-17T15:38:11.574Z,1.30
2022-08-17T15:40:43.158Z,1.47
2022-08-17T15:43:14.424Z,1.50
2022-08-17T15:45:41.427Z,1.40
2022-08-17T15:48:08.043Z,1.42
2022-08-17T15:50:35.439Z,1.25
2022-08-17T15:53:03.320Z,1.60
2022-08-17T15:55:31.437Z,1.42
2022-08-17T15:57:58.104Z,1.30
2022-08-17T16:00:26.009Z,1.70
2022-08-17T16:03:13.775Z,1.60
2022-08-17T16:05:40.662Z,1.40
2022-08-17T16:08:07.644Z,1.40
2022-08-17T16:10:34.188Z,1.60
2022-08-17T16:13:03.814Z,1.60
2022-08-17T16:15:33.711Z,1.60
2022-08-17T16:18:00.416Z,1.25
2022-08-17T16:20:27.156Z,1.48
2022-08-17T16:22:54.986Z,1.30
2022-08-17T16:25:51.876Z,1.20
2022-08-17T16:28:16.130Z,1.30
2022-08-17T16:30:42.834Z,1.40
2022-08-17T16:33:11.463Z,1.38
2022-08-17T16:35:38.707Z,1.63
2022-08-17T16:38:05.496Z,1.23
2022-08-17T16:40:35.950Z,1.50
2022-08-17T16:43:04.205Z,1.48
2022-08-17T16:45:36.429Z,1.60
2022-08-17T16:48:03.593Z,1.60
2022-08-17T16:50:30.321Z,1.38
2022-08-17T16:53:10.709Z,1.55
2022-08-17T16:55:38.227Z,2.00
2022-08-17T16:58:05.999Z,1.48
2022-08-17T17:00:33.693Z,1.60
2022-08-17T17:03:29.265Z,1.70
2022-08-17T17:06:37.204Z,1.40
2022-08-17T17:09:11.168Z,1.80
2022-08-17T17:11:47.991Z,1.60
2022-08-17T17:14:20.430Z,1.77
2022-08-17T17:16:57.766Z,1.60
2022-08-17T17:19:35.216Z,1.50
2022-08-17T17:22:16.411Z,1.58
2022-08-17T17:24:59.967Z,1.58
2022-08-17T17:27:35.998Z,1.88
2022-08-17T17:30:13.697Z,1.63
2022-08-17T17:32:58.463Z,1.73
2022-08-17T17:35:52.949Z,1.90
2022-08-17T17:38:33.862Z,1.55
2022-08-17T17:41:05.493Z,2.10
2022-08-17T17:43:39.634Z,1.80
2022-08-17T17:46:33.298Z,1.90
2022-08-17T17:49:00.494Z,1.83
2022-08-17T17:52:06.258Z,2.00
2022-08-17T17:54:47.334Z,2.00
2022-08-17T17:57:47.522Z,1.67
2022-08-17T18:03:18.626Z,1.85
2022-08-17T18:05:53.999Z,2.10
2022-08-17T18:08:36.182Z,1.92
2022-08-17T18:11:12.208Z,2.00
2022-08-17T18:14:03.617Z,1.95
2022-08-17T18:16:32.866Z,2.13
2022-08-17T18:19:00.509Z,1.90
2022-08-17T18:21:38.282Z,2.00
2022-08-17T18:24:07.996Z,2.33
2022-08-17T18:26:36.634Z,2.33
2022-08-17T18:29:24.241Z,2.42
2022-08-17T18:32:15.821Z,2.05
2022-08-17T18:34:47.750Z,2.20
2022-08-17T18:37:34.830Z,2.10
2022-08-17T18:40:20.482Z,2.25
2022-08-17T18:43:08.389Z,1.95
2022-08-17T18:45:41.943Z,1.98
2022-08-17T18:48:48.797Z,2.30
2022-08-17T18:51:41.851Z,2.22
2022-08-17T18:54:24.405Z,2.10
2022-08-17T18:56:59.512Z,2.08
2022-08-17T18:59:31.276Z,2.30
2022-08-17T19:02:24.928Z,2.70
2022-08-17T19:05:13.392Z,2.63
2022-08-17T19:07:46.245Z,2.38
2022-08-17T19:10:33.197Z,2.47
2022-08-17T19:13:35.002Z,3.10
2022-08-17T19:16:17.432Z,2.95
2022-08-17T19:18:53.721Z,2.42
2022-08-17T19:21:30.673Z,3.13
2022-08-17T19:24:19.537Z,3.03
2022-08-17T19:26:56.013Z,2.97
2022-08-17T19:29:41.118Z,2.78
2022-08-17T19:32:10.273Z,2.80
2022-08-17T19:34:39.067Z,3.00
2022-08-17T19:37:16.856Z,2.88
2022-08-17T19:39:58.607Z,2.83
2022-08-17T19:43:16.565Z,2.95
2022-08-17T19:46:26.027Z,2.53
2022-08-17T19:48:58.040Z,2.63
2022-08-17T19:51:43.656Z,2.60
2022-08-17T19:54:44.650Z,2.95
2022-08-17T19:57:14.160Z,2.83
2022-08-17T19:59:51.482Z,2.67
2022-08-17T20:02:36.366Z,2.75
2022-08-17T20:05:08.553Z,2.72
2022-08-17T20:07:43.880Z,2.40
2022-08-17T20:10:39.591Z,2.58
2022-08-17T20:13:11.363Z,2.95
2022-08-17T20:15:42.203Z,2.90
2022-08-17T20:18:44.418Z,2.45
2022-08-17T20:21:33.857Z,2.58
2022-08-17T20:24:15.601Z,2.38
2022-08-17T20:26:58.313Z,2.95
2022-08-17T20:29:37.656Z,2.63
2022-08-17T20:32:16.248Z,2.80
2022-08-17T20:34:46.454Z,2.50
2022-08-17T20:37:12.954Z,2.63
2022-08-17T20:39:39.533Z,2.50
2022-08-17T20:42:31.238Z,2.40
2022-08-17T20:45:05.523Z,2.45
2022-08-17T20:47:35.694Z,2.72
2022-08-17T20:50:13.607Z,2.85
2022-08-17T20:52:58.766Z,2.60
2022-08-17T20:55:35.375Z,2.70
2022-08-17T20:58:24.740Z,2.60
2022-08-17T21:00:57.881Z,2.88
2022-08-17T21:03:25.103Z,2.70
2022-08-17T21:06:00.426Z,3.22
2022-08-17T21:08:58.523Z,2.90
2022-08-17T21:11:56.715Z,2.90
2022-08-17T21:14:33.444Z,2.70
2022-08-17T21:17:12.138Z,2.80
2022-08-17T21:20:08.194Z,2.90
2022-08-17T21:22:53.317Z,2.60
2022-08-17T21:25:50.670Z,2.83
2022-08-17T21:29:00.728Z,2.60
2022-08-17T21:31:34.323Z,2.72
2022-08-17T21:34:16.647Z,2.83
2022-08-17T21:36:44.947Z,3.28
2022-08-17T21:39:14.190Z,3.30
2022-08-17T21:41:53.769Z,2.72
2022-08-17T21:44:32.406Z,2.78
2022-08-17T21:47:24.540Z,2.65
2022-08-17T21:49:52.725Z,2.90
2022-08-17T21:52:22.974Z,2.92
2022-08-17T21:54:53.374Z,2.95
2022-08-17T21:59:53.894Z,2.78
2022-08-17T22:02:34.074Z,2.90
2022-08-17T22:05:03.978Z,3.30
2022-08-17T22:07:58.819Z,2.92
2022-08-17T22:10:31.006Z,3.10
2022-08-17T22:13:06.571Z,3.42
2022-08-17T22:16:27.770Z,3.30
2022-08-17T22:18:57.849Z,2.72
2022-08-17T22:21:25.146Z,3.37
2022-08-17T22:24:21.541Z,3.28
2022-08-17T22:27:21.627Z,3.20
2022-08-17T22:30:00.561Z,4.35
2022-08-17T22:32:33.308Z,3.17
2022-08-17T22:35:42.684Z,3.17
2022-08-17T22:38:18.306Z,3.30
2022-08-17T22:40:51.395Z,3.05
2022-08-17T22:43:25.931Z,3.25
2022-08-17T22:45:54.769Z,3.30
2022-08-17T22:48:27.262Z,3.20
2022-08-17T22:51:12.649Z,3.40
2022-08-17T22:54:06.837Z,3.33
2022-08-17T22:56:52.375Z,3.47
2022-08-17T22:59:34.336Z,3.85
2022-08-17T23:02:24.178Z,3.25
2022-08-17T23:05:18.985Z,3.60
2022-08-17T23:07:46.706Z,3.25
2022-08-17T23:10:14.571Z,3.58
2022-08-17T23:12:41.187Z,3.28
2022-08-17T23:15:17.544Z,3.38
2022-08-17T23:17:45.543Z,3.63
2022-08-17T23:20:14.201Z,3.45
2022-08-17T23:22:51.502Z,3.78
2022-08-17T23:25:28.034Z,3.38
2022-08-17T23:27:57.344Z,3.50
2022-08-17T23:30:31.019Z,3.50
2022-08-17T23:33:01.285Z,3.50
2022-08-17T23:35:39.102Z,3.47
2022-08-17T23:38:07.942Z,3.45
2022-08-17T23:40:34.611Z,3.78
2022-08-17T23:43:01.182Z,3.58
2022-08-17T23:45:32.677Z,3.75
2022-08-17T23:48:00.348Z,4.22
2022-08-17T23:50:29.869Z,3.70
2022-08-17T23:52:57.823Z,3.47
2022-08-17T23:55:24.365Z,3.67
2022-08-17T23:57:51.076Z,3.70
